Time;durP1;ratioP1;P1;durP2;ratioP2;P2;SDS_P1;SDS_P2;PMS_P1;PMS_P2;Temp;Humidity;BMP_temperature;BMP_pressure;BME280_temperature;BME280_humidity;BME280_pressure;Samples;Min_cycle;Max_cycle;Signal;HPM_P1;HPM_P2
2021/04/21 00:01:49;;;;;;;10.80;6.13;;;4.90;99.90;;;;;;4941901;28;20695;-87
2021/04/21 00:04:16;;;;;;;9.88;5.72;;;4.80;99.90;;;;;;4978261;28;20042;-89
2021/04/21 00:06:43;;;;;;;11.05;6.70;;;4.80;99.90;;;;;;4959920;28;20034;-87
2021/04/21 00:09:13;;;;;;;9.85;6.35;;;4.80;99.90;;;;;;4963816;28;20269;-88
2021/04/21 00:11:40;;;;;;;10.20;6.60;;;4.70;99.90;;;;;;4971386;28;20037;-89
2021/04/21 00:14:06;;;;;;;8.77;6.25;;;4.70;99.90;;;;;;4959214;28;20404;-88
2021/04/21 00:16:33;;;;;;;8.80;5.85;;;4.70;99.90;;;;;;4961622;28;20045;-88
2021/04/21 00:19:01;;;;;;;9.88;5.97;;;4.70;99.90;;;;;;4987406;28;20348;-87
2021/04/21 00:21:27;;;;;;;9.15;6.05;;;4.60;99.90;;;;;;4959360;28;20038;-89
2021/04/21 00:23:53;;;;;;;11.15;5.70;;;4.60;99.90;;;;;;4963613;28;20058;-89
2021/04/21 00:26:22;;;;;;;8.30;6.07;;;4.60;99.90;;;;;;4968691;28;20073;-88
2021/04/21 00:28:51;;;;;;;9.18;6.18;;;4.60;99.90;;;;;;4974427;28;20444;-87
2021/04/21 00:31:18;;;;;;;10.02;6.07;;;4.50;99.90;;;;;;4956900;28;20035;-88
2021/04/21 00:33:45;;;;;;;5.75;4.18;;;4.60;99.90;;;;;;4986290;28;20065;-86
2021/04/21 00:36:14;;;;;;;6.10;4.50;;;4.60;99.90;;;;;;4992825;28;20038;-88
2021/04/21 00:38:40;;;;;;;7.40;5.50;;;4.60;99.90;;;;;;4976625;28;20031;-88
2021/04/21 00:41:37;;;;;;;9.55;5.32;;;4.50;99.90;;;;;;4958293;28;20417;-86
2021/04/21 00:44:24;;;;;;;7.93;5.47;;;4.50;99.90;;;;;;4993720;28;20027;-89
2021/04/21 00:46:58;;;;;;;10.80;6.32;;;4.40;99.90;;;;;;4966453;28;20042;-86
2021/04/21 00:49:26;;;;;;;11.45;6.50;;;4.30;99.90;;;;;;4960207;28;20035;-88
2021/04/21 00:52:06;;;;;;;8.32;5.82;;;4.30;99.90;;;;;;4974931;28;20138;-89
2021/04/21 00:55:01;;;;;;;6.57;4.95;;;4.40;99.90;;;;;;4978469;28;20089;-88
2021/04/21 00:57:45;;;;;;;12.18;6.05;;;4.40;99.90;;;;;;4990901;28;20030;-87
2021/04/21 01:00:13;;;;;;;11.73;6.10;;;4.30;99.90;;;;;;4992671;28;20030;-86
2021/04/21 01:03:19;;;;;;;9.75;6.18;;;4.30;99.90;;;;;;4996993;28;20494;-89
2021/04/21 01:05:56;;;;;;;8.30;5.90;;;4.30;99.90;;;;;;4993335;28;20036;-86
2021/04/21 01:08:26;;;;;;;8.45;6.07;;;4.20;99.90;;;;;;4972819;28;20038;-89
2021/04/21 01:10:58;;;;;;;10.35;5.85;;;4.20;99.90;;;;;;4974602;28;20105;-88
2021/04/21 01:13:33;;;;;;;12.95;6.18;;;4.20;99.90;;;;;;4988648;28;20482;-86
2021/04/21 01:16:01;;;;;;;10.20;5.80;;;4.10;99.90;;;;;;4990777;28;20034;-86
2021/04/21 01:18:29;;;;;;;9.13;5.93;;;4.10;99.90;;;;;;4998355;28;20077;-88
2021/04/21 01:21:04;;;;;;;10.77;6.50;;;4.10;99.90;;;;;;4960806;28;20030;-87
2021/04/21 01:24:04;;;;;;;10.18;6.63;;;4.10;99.90;;;;;;4986520;28;20113;-86
2021/04/21 01:26:45;;;;;;;9.88;6.53;;;4.00;99.90;;;;;;4993361;28;20034;-86
2021/04/21 01:29:15;;;;;;;15.00;6.97;;;4.00;99.90;;;;;;4989593;28;20469;-86
2021/04/21 01:31:42;;;;;;;11.90;6.82;;;4.00;99.90;;;;;;4976885;28;20041;-88
2021/04/21 01:34:11;;;;;;;10.10;6.75;;;4.00;99.90;;;;;;4960193;28;20030;-86
2021/04/21 01:36:39;;;;;;;10.63;6.60;;;4.00;99.90;;;;;;4974227;28;20041;-88
2021/04/21 01:39:07;;;;;;;8.50;5.65;;;4.00;99.90;;;;;;4986108;28;20038;-87
2021/04/21 01:41:38;;;;;;;9.60;6.65;;;3.90;99.90;;;;;;4956173;28;20039;-88
2021/04/21 01:44:13;;;;;;;12.05;7.25;;;3.80;99.90;;;;;;4992615;28;20061;-88
2021/04/21 01:46:42;;;;;;;8.70;6.25;;;3.80;99.90;;;;;;4958491;28;20026;-88
2021/04/21 01:49:23;;;;;;;10.40;6.75;;;3.70;99.90;;;;;;4976765;28;20447;-88
2021/04/21 01:52:05;;;;;;;12.45;7.20;;;3.70;99.90;;;;;;4973273;28;20109;-89
2021/04/21 01:54:33;;;;;;;10.63;6.22;;;3.70;99.90;;;;;;4982612;28;20496;-88
2021/04/21 01:57:11;;;;;;;13.20;6.88;;;3.70;99.90;;;;;;4983901;28;20038;-89
2021/04/21 02:00:35;;;;;;;10.93;6.20;;;3.60;99.90;;;;;;4989760;28;20053;-86
2021/04/21 02:03:19;;;;;;;10.27;6.65;;;3.70;99.90;;;;;;4964639;28;20412;-88
2021/04/21 02:06:03;;;;;;;11.25;6.90;;;3.70;99.90;;;;;;4992611;28;20022;-87
2021/04/21 02:08:37;;;;;;;10.52;6.70;;;3.70;99.90;;;;;;4961757;28;20498;-89
2021/04/21 02:11:11;;;;;;;14.20;7.90;;;3.70;99.90;;;;;;4958208;28;20046;-89
2021/04/21 02:14:02;;;;;;;11.55;7.18;;;3.80;99.90;;;;;;4972703;28;20037;-87
2021/04/21 02:16:58;;;;;;;10.18;6.55;;;3.80;99.90;;;;;;4959260;28;20887;-87
2021/04/21 02:19:41;;;;;;;12.65;7.05;;;3.80;99.90;;;;;;4976079;28;20408;-89
2021/04/21 02:22:34;;;;;;;11.02;6.68;;;3.80;99.90;;;;;;4990977;28;20038;-88
2021/04/21 02:25:19;;;;;;;11.10;6.38;;;3.80;99.90;;;;;;4975835;28;20030;-87
2021/04/21 02:27:57;;;;;;;10.30;6.30;;;3.70;99.90;;;;;;4973775;28;20624;-88
2021/04/21 02:30:49;;;;;;;10.07;6.45;;;3.70;99.90;;;;;;4991462;28;20026;-88
2021/04/21 02:33:33;;;;;;;10.90;7.47;;;3.60;99.90;;;;;;4974531;28;20065;-87
2021/04/21 02:36:06;;;;;;;13.88;7.20;;;3.50;99.90;;;;;;4972039;28;20050;-85
2021/04/21 02:38:55;;;;;;;11.93;7.20;;;3.50;99.90;;;;;;4992308;28;20117;-89
2021/04/21 02:41:52;;;;;;;10.23;6.90;;;3.40;99.90;;;;;;4978479;28;20541;-88
2021/04/21 02:44:33;;;;;;;11.93;6.75;;;3.50;99.90;;;;;;4976387;28;20126;-88
2021/04/21 02:47:23;;;;;;;12.90;6.57;;;3.40;99.90;;;;;;4995611;28;20509;-87
2021/04/21 02:50:07;;;;;;;11.10;7.03;;;3.40;99.90;;;;;;4993803;28;20023;-87
2021/04/21 02:53:05;;;;;;;9.10;6.05;;;3.40;99.90;;;;;;4971844;28;20106;-87
2021/04/21 02:55:49;;;;;;;11.18;6.63;;;3.50;99.90;;;;;;4975227;28;20037;-87
2021/04/21 02:58:20;;;;;;;13.45;6.80;;;3.50;99.90;;;;;;4991762;28;20117;-88
2021/04/21 03:01:12;;;;;;;10.63;6.35;;;3.40;99.90;;;;;;4979779;28;20356;-88
2021/04/21 03:03:46;;;;;;;10.30;6.72;;;3.40;99.90;;;;;;4991906;28;20031;-88
2021/04/21 03:06:21;;;;;;;11.35;6.30;;;3.30;99.90;;;;;;4995242;28;20436;-87
2021/04/21 03:09:02;;;;;;;12.17;7.13;;;3.20;99.90;;;;;;4993815;28;20026;-88
2021/04/21 03:11:30;;;;;;;11.30;7.35;;;3.20;99.90;;;;;;4993964;28;20030;-88
2021/04/21 03:14:28;;;;;;;13.15;7.65;;;3.20;99.90;;;;;;4986033;28;20039;-88
2021/04/21 03:16:59;;;;;;;10.18;7.35;;;3.10;99.90;;;;;;4980415;28;20030;-88
2021/04/21 03:19:28;;;;;;;9.88;7.15;;;3.20;99.90;;;;;;4960679;28;20049;-87
2021/04/21 03:22:01;;;;;;;11.02;7.30;;;3.10;99.90;;;;;;4984416;28;20030;-88
2021/04/21 03:24:29;;;;;;;10.63;7.00;;;3.10;99.90;;;;;;4977100;28;20030;-89
2021/04/21 03:27:01;;;;;;;12.93;6.75;;;3.10;99.90;;;;;;4960167;28;20113;-87
2021/04/21 03:29:37;;;;;;;9.57;6.43;;;3.10;99.90;;;;;;4975620;28;20053;-89
2021/04/21 03:32:10;;;;;;;9.02;6.25;;;3.10;99.90;;;;;;4973093;28;20112;-89
2021/04/21 03:34:37;;;;;;;10.55;6.30;;;3.20;99.90;;;;;;4992825;28;20034;-88
2021/04/21 03:37:29;;;;;;;11.90;7.05;;;3.20;99.90;;;;;;4958918;28;20030;-89
2021/04/21 03:39:56;;;;;;;11.32;6.78;;;3.10;99.90;;;;;;4968495;28;20519;-88
2021/04/21 03:42:21;;;;;;;10.38;6.40;;;3.00;99.90;;;;;;4962290;28;20666;-89
2021/04/21 03:44:48;;;;;;;9.45;6.40;;;2.90;99.90;;;;;;4959092;28;20031;-90
2021/04/21 03:47:14;;;;;;;11.27;6.63;;;2.90;99.90;;;;;;4973382;28;20118;-86
2021/04/21 03:49:42;;;;;;;13.98;7.38;;;2.90;99.90;;;;;;4964981;28;20052;-87
2021/04/21 03:52:11;;;;;;;12.00;6.82;;;2.90;99.90;;;;;;4957940;28;20035;-86
2021/04/21 03:54:39;;;;;;;10.52;7.13;;;2.90;99.90;;;;;;4957128;28;20058;-88
2021/04/21 03:57:06;;;;;;;11.70;6.82;;;2.90;99.90;;;;;;4981525;28;20038;-87
2021/04/21 03:59:34;;;;;;;12.15;7.35;;;2.90;99.90;;;;;;4959950;28;20073;-88
2021/04/21 04:02:06;;;;;;;12.90;7.15;;;2.90;99.90;;;;;;4972751;28;20552;-90
2021/04/21 04:04:37;;;;;;;9.73;6.05;;;2.90;99.90;;;;;;4960329;28;20038;-90
2021/04/21 04:07:11;;;;;;;10.68;6.30;;;2.90;99.90;;;;;;4973101;28;20035;-89
2021/04/21 04:09:38;;;;;;;14.15;7.43;;;2.90;99.90;;;;;;4963281;28;20089;-89
2021/04/21 04:12:06;;;;;;;10.48;6.47;;;2.90;99.90;;;;;;4991427;28;20038;-87
2021/04/21 04:14:38;;;;;;;11.95;7.78;;;2.90;99.90;;;;;;4952272;28;595055;-88
2021/04/21 04:17:04;;;;;;;12.60;7.88;;;2.80;99.90;;;;;;4950155;28;20064;-88
2021/04/21 04:19:37;;;;;;;13.60;8.25;;;2.80;99.90;;;;;;4975758;28;20491;-90
2021/04/21 04:22:03;;;;;;;16.27;8.13;;;2.80;99.90;;;;;;4958417;28;20039;-89
2021/04/21 04:24:34;;;;;;;14.05;8.30;;;2.80;99.90;;;;;;4973601;28;20178;-88
2021/04/21 04:27:01;;;;;;;13.88;8.95;;;2.90;99.90;;;;;;4993657;28;20030;-89
2021/04/21 04:29:27;;;;;;;20.50;11.90;;;2.90;99.90;;;;;;4975850;28;20035;-89
2021/04/21 04:31:54;;;;;;;20.98;11.38;;;2.90;99.90;;;;;;4976378;28;20504;-88
2021/04/21 04:34:22;;;;;;;18.38;9.82;;;2.90;99.90;;;;;;4993537;28;20054;-87
2021/04/21 04:36:48;;;;;;;14.32;7.55;;;3.00;99.90;;;;;;4992159;28;20053;-88
2021/04/21 04:39:14;;;;;;;8.15;5.50;;;3.00;99.90;;;;;;4977256;28;20042;-86
2021/04/21 04:41:41;;;;;;;8.95;5.13;;;3.00;99.90;;;;;;4959989;28;20042;-86
2021/04/21 04:44:09;;;;;;;6.95;4.63;;;3.00;99.90;;;;;;4960573;28;20057;-89
2021/04/21 04:46:45;;;;;;;7.45;4.78;;;3.00;99.90;;;;;;4948577;28;20058;-88
2021/04/21 04:49:12;;;;;;;;;;;3.00;99.90;;;;;;4957347;28;20030;-87
2021/04/21 04:51:42;;;;;;;9.55;5.18;;;3.00;99.90;;;;;;4957328;28;19936;-89
2021/04/21 04:54:11;;;;;;;7.45;5.20;;;3.00;99.90;;;;;;4992030;28;20041;-89
2021/04/21 04:56:37;;;;;;;7.75;5.18;;;3.00;99.90;;;;;;4949819;28;20081;-88
2021/04/21 04:59:05;;;;;;;9.18;5.78;;;3.10;99.90;;;;;;4981965;28;20042;-88
2021/04/21 05:01:46;;;;;;;8.65;5.70;;;3.10;99.90;;;;;;4987961;28;20096;-87
2021/04/21 05:04:14;;;;;;;8.90;5.65;;;3.20;99.90;;;;;;4990458;28;20033;-89
2021/04/21 05:06:48;;;;;;;12.80;7.15;;;3.20;99.90;;;;;;4957101;28;20066;-88
2021/04/21 05:09:17;;;;;;;11.98;7.50;;;3.30;99.90;;;;;;4974503;28;20046;-88
2021/04/21 05:11:45;;;;;;;12.98;6.97;;;3.30;99.90;;;;;;4954054;28;20045;-87
2021/04/21 05:14:13;;;;;;;9.77;6.35;;;3.40;99.90;;;;;;4959787;28;20042;-87
2021/04/21 05:16:58;;;;;;;12.27;6.85;;;3.40;99.90;;;;;;4960497;28;20070;-87
2021/04/21 05:19:43;;;;;;;10.95;6.95;;;3.40;99.90;;;;;;4990368;28;20045;-88
2021/04/21 05:22:46;;;;;;;10.15;6.28;;;3.50;99.90;;;;;;4991190;28;20066;-86
2021/04/21 05:25:47;;;;;;;10.90;5.93;;;3.50;99.90;;;;;;4975405;28;20058;-87
2021/04/21 05:28:35;;;;;;;7.95;5.57;;;3.60;99.90;;;;;;4974226;28;20085;-88
2021/04/21 05:31:14;;;;;;;10.60;6.80;;;3.70;99.90;;;;;;4974501;28;20477;-87
2021/04/21 05:34:23;;;;;;;10.55;6.55;;;3.80;99.90;;;;;;4987324;28;20035;-86
2021/04/21 05:37:15;;;;;;;10.23;6.22;;;4.00;99.90;;;;;;4990225;28;20037;-88
2021/04/21 05:40:14;;;;;;;13.18;7.97;;;4.30;99.90;;;;;;4982317;28;20479;-88
2021/04/21 05:42:48;;;;;;;10.30;6.90;;;4.60;99.90;;;;;;4994767;28;20039;-88
2021/04/21 05:45:37;;;;;;;14.18;6.93;;;5.00;99.90;;;;;;4990332;28;20073;-87
2021/04/21 05:48:40;;;;;;;12.05;7.72;;;5.50;99.90;;;;;;4972071;28;20129;-88
2021/04/21 05:51:36;;;;;;;12.48;6.97;;;5.90;99.90;;;;;;4991921;28;20441;-88
2021/04/21 05:54:07;;;;;;;12.02;7.72;;;6.40;99.90;;;;;;4990712;28;20448;-89
2021/04/21 05:56:58;;;;;;;11.77;8.05;;;6.70;99.90;;;;;;4980607;28;20030;-89
2021/04/21 05:59:59;;;;;;;16.23;9.40;;;6.80;99.90;;;;;;4980934;28;20164;-90
2021/04/21 06:02:26;;;;;;;12.48;8.50;;;6.90;99.90;;;;;;4974881;28;20092;-88
2021/04/21 06:05:08;;;;;;;12.35;7.43;;;6.80;99.90;;;;;;4977097;28;20034;-90
2021/04/21 06:07:34;;;;;;;12.18;7.97;;;6.60;99.90;;;;;;4959763;28;20073;-90
2021/04/21 06:10:17;;;;;;;10.80;7.45;;;6.40;99.90;;;;;;4990713;28;20435;-90
2021/04/21 06:12:44;;;;;;;10.05;7.25;;;6.40;99.90;;;;;;4990003;28;20661;-88
2021/04/21 06:15:15;;;;;;;11.18;7.63;;;6.40;99.90;;;;;;4978859;28;20046;-89
2021/04/21 06:17:52;;;;;;;21.25;11.52;;;6.50;99.90;;;;;;4975487;28;20038;-88
2021/04/21 06:20:37;;;;;;;27.15;15.80;;;6.90;99.90;;;;;;4990004;28;20034;-89
2021/04/21 06:23:07;;;;;;;13.70;9.15;;;7.40;99.90;;;;;;4990432;28;20062;-89
2021/04/21 06:25:33;;;;;;;11.40;7.30;;;8.00;99.90;;;;;;4993359;28;20113;-89
2021/04/21 06:28:07;;;;;;;11.55;7.10;;;8.60;99.90;;;;;;4962232;28;20039;-89
2021/04/21 06:30:33;;;;;;;10.25;6.55;;;9.20;99.90;;;;;;4958041;28;20501;-89
2021/04/21 06:33:00;;;;;;;11.75;7.13;;;9.80;99.90;;;;;;4981592;28;20030;-87
2021/04/21 06:35:29;;;;;;;9.57;6.53;;;10.30;99.90;;;;;;4970733;28;20604;-87
2021/04/21 06:37:55;;;;;;;8.05;5.72;;;10.60;99.90;;;;;;4976865;28;20229;-88
2021/04/21 06:40:25;;;;;;;8.80;6.10;;;10.90;99.90;;;;;;4990053;28;20564;-86
2021/04/21 06:42:53;;;;;;;7.32;5.85;;;10.90;99.90;;;;;;4985806;28;20497;-87
2021/04/21 06:45:27;;;;;;;10.68;6.15;;;10.70;99.90;;;;;;4991539;28;20469;-87
2021/04/21 06:47:54;;;;;;;10.68;7.03;;;10.70;99.90;;;;;;4974033;28;20037;-87
2021/04/21 06:50:33;;;;;;;10.05;6.50;;;10.80;99.90;;;;;;4971932;28;20030;-87
2021/04/21 06:53:02;;;;;;;9.93;7.05;;;11.10;99.90;;;;;;4985270;28;20030;-88
2021/04/21 06:55:29;;;;;;;10.38;7.20;;;11.40;99.90;;;;;;4952751;28;20054;-86
2021/04/21 06:57:55;;;;;;;11.02;7.63;;;11.80;99.90;;;;;;4962170;28;20118;-87
2021/04/21 07:00:27;;;;;;;11.80;7.30;;;12.30;99.90;;;;;;4964256;28;20113;-89
2021/04/21 07:03:01;;;;;;;11.85;8.40;;;12.90;99.90;;;;;;4980897;28;20109;-89
2021/04/21 07:05:30;;;;;;;12.35;8.52;;;13.10;99.90;;;;;;4967387;28;20045;-86
2021/04/21 07:08:10;;;;;;;11.55;8.02;;;13.20;99.90;;;;;;4966188;28;20122;-87
2021/04/21 07:10:45;;;;;;;18.08;10.05;;;13.50;99.90;;;;;;4968013;28;20049;-87
2021/04/21 07:13:22;;;;;;;13.05;8.73;;;13.80;99.90;;;;;;4981090;28;20072;-87
2021/04/21 07:15:50;;;;;;;16.30;11.80;;;13.70;99.90;;;;;;4961376;28;20061;-85
2021/04/21 07:18:20;;;;;;;13.77;8.63;;;13.50;99.90;;;;;;4967745;28;20037;-88
2021/04/21 07:20:46;;;;;;;15.25;8.60;;;13.40;99.90;;;;;;4964676;28;20565;-88
2021/04/21 07:23:16;;;;;;;12.90;8.57;;;13.30;99.90;;;;;;4968102;28;20080;-88
2021/04/21 07:25:46;;;;;;;15.40;8.18;;;13.20;99.90;;;;;;4974068;28;20030;-87
2021/04/21 07:28:13;;;;;;;18.35;10.40;;;13.20;99.90;;;;;;4971181;28;20038;-87
2021/04/21 07:30:39;;;;;;;12.98;8.10;;;13.40;99.90;;;;;;4959788;28;20030;-88
2021/04/21 07:33:05;;;;;;;14.98;9.50;;;13.40;99.90;;;;;;4980651;28;20780;-89
2021/04/21 07:35:33;;;;;;;11.43;7.88;;;13.20;99.90;;;;;;4971206;28;20038;-89
2021/04/21 07:38:00;;;;;;;10.70;7.65;;;13.50;99.90;;;;;;4954795;28;20042;-88
2021/04/21 07:40:27;;;;;;;15.65;8.98;;;13.80;99.90;;;;;;4989549;28;20397;-87
2021/04/21 07:43:22;;;;;;;14.02;9.55;;;14.20;99.90;;;;;;4973639;28;20022;-89
2021/04/21 07:45:55;;;;;;;11.93;7.78;;;14.80;99.90;;;;;;4969393;28;20034;-88
2021/04/21 07:48:47;;;;;;;12.90;8.27;;;15.20;99.90;;;;;;4967666;28;20037;-88
2021/04/21 07:51:16;;;;;;;10.60;7.70;;;15.30;99.90;;;;;;4968731;28;20042;-89
2021/04/21 07:53:54;;;;;;;13.77;8.18;;;15.20;99.90;;;;;;4980796;28;20504;-88
2021/04/21 07:56:22;;;;;;;12.70;8.38;;;15.40;99.90;;;;;;4987412;28;20324;-88
2021/04/21 07:58:49;;;;;;;10.55;7.57;;;15.80;99.90;;;;;;4972760;28;20115;-87
2021/04/21 08:01:34;;;;;;;10.38;7.68;;;15.80;99.90;;;;;;4962339;28;20729;-89
2021/04/21 08:04:14;;;;;;;10.43;7.27;;;15.60;99.90;;;;;;4989260;28;20080;-87
2021/04/21 08:06:43;;;;;;;11.98;7.75;;;15.40;99.90;;;;;;4969177;28;20117;-86
2021/04/21 08:09:09;;;;;;;14.40;8.32;;;15.30;99.90;;;;;;4970367;28;20126;-87
2021/04/21 08:11:35;;;;;;;11.38;7.63;;;15.10;99.90;;;;;;4998264;28;20117;-87
2021/04/21 08:14:01;;;;;;;11.10;8.13;;;15.10;99.90;;;;;;4955210;28;20436;-86
2021/04/21 08:16:30;;;;;;;12.48;7.55;;;15.00;99.90;;;;;;4970383;28;20774;-88
2021/04/21 08:18:57;;;;;;;10.20;7.28;;;15.00;99.90;;;;;;4970001;28;20030;-90
2021/04/21 08:21:47;;;;;;;11.57;8.52;;;15.10;99.90;;;;;;4936564;28;20041;-89
2021/04/21 08:24:16;;;;;;;9.93;7.90;;;15.10;99.90;;;;;;4972167;28;20121;-89
2021/04/21 08:26:44;;;;;;;9.57;7.47;;;15.20;99.90;;;;;;4968964;28;20485;-89
2021/04/21 08:29:14;;;;;;;12.02;7.60;;;15.20;99.90;;;;;;4983346;28;20092;-88
2021/04/21 08:31:51;;;;;;;10.05;7.47;;;15.10;99.90;;;;;;4974749;28;20042;-87
2021/04/21 08:34:20;;;;;;;13.15;8.32;;;15.20;99.90;;;;;;4968874;28;20035;-89
2021/04/21 08:36:46;;;;;;;10.57;7.40;;;15.10;99.90;;;;;;4989838;28;20022;-86
2021/04/21 08:39:13;;;;;;;11.48;8.15;;;15.00;99.90;;;;;;4991691;28;20046;-87
2021/04/21 08:41:41;;;;;;;13.90;9.35;;;14.80;99.90;;;;;;4974432;28;20034;-88
2021/04/21 08:44:15;;;;;;;13.07;8.35;;;14.90;99.90;;;;;;4959808;28;20073;-88
2021/04/21 08:46:40;;;;;;;14.00;9.40;;;14.90;99.90;;;;;;4971038;28;20050;-88
2021/04/21 08:49:09;;;;;;;14.77;10.38;;;14.80;99.90;;;;;;4956635;28;20474;-88
2021/04/21 08:51:36;;;;;;;13.18;8.93;;;14.70;99.90;;;;;;4991507;28;20030;-88
2021/04/21 08:54:09;;;;;;;10.70;7.85;;;14.50;99.90;;;;;;4965866;28;20469;-86
2021/04/21 08:56:37;;;;;;;17.65;11.27;;;14.30;99.90;;;;;;4988477;28;20042;-88
2021/04/21 08:59:09;;;;;;;12.32;7.93;;;14.40;99.90;;;;;;4971281;28;20038;-89
2021/04/21 09:01:35;;;;;;;12.43;8.65;;;14.30;99.90;;;;;;4963194;28;20026;-87
2021/04/21 09:04:01;;;;;;;14.57;8.50;;;14.40;99.90;;;;;;4983460;28;20366;-87
2021/04/21 09:06:28;;;;;;;16.08;10.70;;;14.30;99.90;;;;;;4971372;28;20034;-89
2021/04/21 09:08:55;;;;;;;15.27;9.55;;;14.30;99.90;;;;;;4980188;28;20030;-92
2021/04/21 09:11:22;;;;;;;16.35;11.55;;;14.20;99.90;;;;;;4950753;28;20042;-90
2021/04/21 09:13:49;;;;;;;12.15;8.52;;;14.10;99.90;;;;;;4966845;28;20133;-90
2021/04/21 09:16:17;;;;;;;12.27;7.40;;;14.10;99.90;;;;;;4956787;28;20702;-87
2021/04/21 09:18:43;;;;;;;11.85;7.53;;;14.10;99.90;;;;;;4952563;28;20153;-91
2021/04/21 09:21:18;;;;;;;12.88;8.13;;;14.00;99.90;;;;;;4952143;28;20482;-87
2021/04/21 09:23:44;;;;;;;15.40;8.00;;;14.00;99.90;;;;;;4986188;28;20026;-88
2021/04/21 09:26:21;;;;;;;10.90;6.85;;;13.90;99.90;;;;;;4952341;28;20034;-90
2021/04/21 09:28:49;;;;;;;12.80;7.40;;;13.90;99.90;;;;;;4982302;28;20018;-90
2021/04/21 09:31:19;;;;;;;14.90;7.88;;;13.90;99.90;;;;;;4986488;28;20034;-88
2021/04/21 09:33:46;;;;;;;13.18;7.28;;;13.90;99.90;;;;;;4972163;28;20081;-90
2021/04/21 09:36:12;;;;;;;9.68;6.85;;;14.00;99.90;;;;;;4968913;28;20089;-88
2021/04/21 09:38:38;;;;;;;12.07;7.25;;;14.10;99.90;;;;;;4951837;28;20510;-88
2021/04/21 09:41:15;;;;;;;11.77;7.35;;;14.20;99.90;;;;;;4985828;28;20038;-89
2021/04/21 09:43:42;;;;;;;12.70;8.32;;;14.40;99.90;;;;;;4986761;28;20675;-91
2021/04/21 09:46:17;;;;;;;12.15;7.85;;;14.40;99.90;;;;;;4952812;28;20041;-88
2021/04/21 09:48:47;;;;;;;11.85;8.02;;;14.50;99.90;;;;;;4981820;28;20069;-90
2021/04/21 09:51:14;;;;;;;14.23;8.05;;;14.50;99.90;;;;;;4948808;28;20038;-87
2021/04/21 09:53:50;;;;;;;11.88;8.23;;;14.50;99.90;;;;;;4970066;28;20109;-89
2021/04/21 09:56:24;;;;;;;8.95;6.15;;;14.60;99.90;;;;;;4952826;28;20037;-87
2021/04/21 09:58:51;;;;;;;9.80;7.10;;;14.50;99.90;;;;;;4967469;28;20756;-90
2021/04/21 10:01:36;;;;;;;10.88;7.63;;;14.50;99.90;;;;;;4969677;28;20029;-90
2021/04/21 10:04:14;;;;;;;11.00;7.07;;;14.50;99.90;;;;;;4984192;28;20042;-87
2021/04/21 10:06:50;;;;;;;9.32;7.10;;;14.60;99.90;;;;;;4969505;28;20089;-91
2021/04/21 10:09:26;;;;;;;14.00;7.43;;;14.70;99.90;;;;;;5002606;28;20068;-90
2021/04/21 10:12:12;;;;;;;10.05;7.18;;;14.80;99.90;;;;;;4986325;28;20034;-89
2021/04/21 10:14:37;;;;;;;10.52;6.88;;;14.80;99.90;;;;;;4955841;28;20039;-90
2021/04/21 10:17:04;;;;;;;10.52;6.38;;;15.00;99.90;;;;;;4981550;28;20405;-85
2021/04/21 10:19:32;;;;;;;13.05;8.05;;;15.10;99.90;;;;;;4955394;28;20135;-89
2021/04/21 10:21:58;;;;;;;9.75;7.60;;;15.20;99.90;;;;;;4983925;28;20529;-90
2021/04/21 10:24:25;;;;;;;10.40;6.75;;;15.20;99.90;;;;;;4954728;28;20121;-90
2021/04/21 10:26:51;;;;;;;10.35;6.90;;;15.00;99.90;;;;;;4969851;28;20109;-88
2021/04/21 10:29:17;;;;;;;12.07;7.72;;;14.90;99.90;;;;;;4982149;28;20138;-88
2021/04/21 10:31:44;;;;;;;12.68;7.97;;;14.70;99.90;;;;;;4969402;28;20030;-87
2021/04/21 10:34:10;;;;;;;17.10;8.13;;;14.60;99.90;;;;;;4984501;28;20037;-88
2021/04/21 10:36:36;;;;;;;11.20;7.05;;;14.70;99.90;;;;;;4940631;28;20027;-90
2021/04/21 10:39:02;;;;;;;12.48;8.00;;;14.80;99.90;;;;;;4954281;28;20112;-85
2021/04/21 10:41:36;;;;;;;12.77;7.20;;;14.80;99.90;;;;;;4986408;28;20022;-88
2021/04/21 10:44:16;;;;;;;11.43;8.40;;;14.80;99.90;;;;;;4951999;28;20031;-86
2021/04/21 10:47:31;;;;;;;12.57;8.25;;;14.80;99.90;;;;;;4982985;28;20046;-89
2021/04/21 10:50:04;;;;;;;10.00;6.75;;;14.90;99.90;;;;;;4963798;28;20069;-87
2021/04/21 10:52:30;;;;;;;14.15;7.15;;;15.00;99.90;;;;;;4954984;28;20031;-88
2021/04/21 10:54:57;;;;;;;10.32;7.00;;;15.20;99.90;;;;;;4966201;28;20053;-88
2021/04/21 10:57:23;;;;;;;9.07;6.97;;;15.30;99.90;;;;;;4987971;28;20061;-87
2021/04/21 11:00:08;;;;;;;13.07;6.55;;;15.30;99.90;;;;;;4971970;28;20023;-89
2021/04/21 11:02:40;;;;;;;11.20;6.63;;;15.30;99.90;;;;;;4969142;28;20046;-88
2021/04/21 11:05:08;;;;;;;11.38;7.65;;;15.50;99.90;;;;;;5000721;28;20593;-91
2021/04/21 11:07:37;;;;;;;9.13;6.65;;;15.70;99.90;;;;;;4971721;28;20070;-89
2021/04/21 11:10:04;;;;;;;10.88;6.70;;;15.90;99.90;;;;;;4974122;28;20038;-86
2021/04/21 11:12:50;;;;;;;15.65;7.40;;;16.10;99.90;;;;;;4975827;28;20102;-86
2021/04/21 11:15:44;;;;;;;9.90;6.57;;;16.10;99.90;;;;;;4978918;28;20038;-86
2021/04/21 11:18:10;;;;;;;9.80;7.03;;;16.10;99.90;;;;;;5001076;28;20052;-89
2021/04/21 11:20:51;;;;;;;11.05;6.60;;;16.00;99.90;;;;;;4972319;28;20081;-88
2021/04/21 11:24:13;;;;;;;9.70;5.55;;;15.90;99.90;;;;;;4987018;28;20050;-87
2021/04/21 11:26:40;;;;;;;7.90;5.53;;;15.70;99.90;;;;;;4959280;28;20026;-87
2021/04/21 11:29:08;;;;;;;7.57;5.43;;;15.60;99.90;;;;;;4988828;28;20545;-89
2021/04/21 11:31:39;;;;;;;9.45;6.18;;;15.50;99.90;;;;;;4988785;28;20401;-87
2021/04/21 11:34:24;;;;;;;9.70;6.13;;;15.70;99.90;;;;;;4989631;28;20041;-86
2021/04/21 11:36:59;;;;;;;11.20;6.47;;;15.80;99.90;;;;;;4970894;28;20034;-86
2021/04/21 11:39:43;;;;;;;9.40;6.60;;;15.80;95.90;;;;;;4985268;28;20104;-87
2021/04/21 11:42:33;;;;;;;14.98;6.85;;;15.90;94.10;;;;;;4985510;28;20073;-87
2021/04/21 11:45:11;;;;;;;9.10;6.15;;;15.90;94.70;;;;;;4968931;28;20089;-88
2021/04/21 11:48:00;;;;;;;8.57;6.15;;;15.90;95.80;;;;;;4969320;28;20086;-89
2021/04/21 11:50:40;;;;;;;11.00;6.55;;;16.00;99.60;;;;;;4989642;28;20037;-87
2021/04/21 11:53:10;;;;;;;10.07;5.97;;;16.30;98.80;;;;;;4984704;28;20038;-86
2021/04/21 11:55:50;;;;;;;9.48;5.95;;;16.70;96.70;;;;;;4968230;28;20519;-86
2021/04/21 11:58:27;;;;;;;10.55;6.65;;;17.20;95.90;;;;;;4969665;28;20046;-87
2021/04/21 12:00:56;;;;;;;8.15;6.38;;;17.40;89.40;;;;;;4979222;28;20511;-87
2021/04/21 12:03:27;;;;;;;7.55;5.38;;;17.40;91.10;;;;;;4968760;28;20027;-90
2021/04/21 12:05:58;;;;;;;8.52;6.60;;;17.40;92.40;;;;;;4972505;28;20038;-90
2021/04/21 12:08:26;;;;;;;12.27;6.90;;;17.40;93.40;;;;;;4977783;28;20685;-89
2021/04/21 12:10:53;;;;;;;12.70;6.22;;;17.40;86.50;;;;;;4957187;28;20118;-87
2021/04/21 12:13:25;;;;;;;9.40;6.90;;;17.20;85.30;;;;;;4973986;28;20045;-89
2021/04/21 12:16:22;;;;;;;9.07;6.68;;;17.20;86.50;;;;;;4974199;28;20053;-88
2021/04/21 12:18:55;;;;;;;9.98;6.50;;;17.20;91.30;;;;;;4964665;28;20050;-88
2021/04/21 12:21:27;;;;;;;10.00;6.88;;;17.40;91.70;;;;;;4971832;28;20037;-88
2021/04/21 12:24:03;;;;;;;9.02;6.55;;;17.80;89.40;;;;;;4958806;28;20034;-88
2021/04/21 12:26:38;;;;;;;9.18;6.25;;;18.00;81.10;;;;;;4949978;28;20115;-87
2021/04/21 12:29:17;;;;;;;7.10;5.80;;;18.20;81.70;;;;;;4969239;28;20069;-88
2021/04/21 12:31:43;;;;;;;9.70;6.03;;;18.40;78.40;;;;;;4944850;28;20121;-87
2021/04/21 12:34:16;;;;;;;10.95;6.22;;;18.40;80.30;;;;;;4955402;28;20129;-86
2021/04/21 12:36:42;;;;;;;8.75;6.00;;;18.60;74.30;;;;;;4987745;28;20069;-87
2021/04/21 12:39:22;;;;;;;7.75;5.13;;;18.60;73.50;;;;;;4968758;28;20077;-87
2021/04/21 12:41:54;;;;;;;7.53;3.95;;;18.80;72.80;;;;;;4953167;28;20030;-87
2021/04/21 12:44:26;;;;;;;7.80;4.10;;;19.20;74.70;;;;;;4985277;28;20030;-87
2021/04/21 12:46:53;;;;;;;7.30;5.80;;;19.40;79.70;;;;;;4951334;28;20595;-89
2021/04/21 12:49:41;;;;;;;7.38;5.35;;;19.90;66.10;;;;;;4974584;28;20030;-86
2021/04/21 12:52:09;;;;;;;9.48;5.50;;;20.20;72.50;;;;;;4963616;28;20130;-87
2021/04/21 12:54:40;;;;;;;13.60;6.68;;;20.20;73.40;;;;;;4982025;28;20056;-87
2021/04/21 12:57:08;;;;;;;8.10;5.45;;;19.90;82.50;;;;;;4966896;28;20268;-90
2021/04/21 12:59:39;;;;;;;8.70;5.88;;;19.30;71.00;;;;;;5001039;28;20029;-86
2021/04/21 13:02:05;;;;;;;7.32;4.43;;;18.70;74.40;;;;;;4984208;28;20552;-87
2021/04/21 13:04:36;;;;;;;6.60;4.43;;;18.20;77.70;;;;;;4969820;28;20031;-88
2021/04/21 13:07:21;;;;;;;6.43;3.70;;;17.80;79.80;;;;;;4964745;28;20041;-88
2021/04/21 13:09:47;;;;;;;5.53;3.20;;;17.40;78.90;;;;;;4956660;28;20030;-87
2021/04/21 13:12:22;;;;;;;5.78;2.90;;;17.10;68.00;;;;;;4966656;28;20065;-88
2021/04/21 13:14:50;;;;;;;3.63;3.00;;;16.80;74.40;;;;;;4994678;28;20045;-89
2021/04/21 13:17:16;;;;;;;4.22;2.75;;;16.60;70.40;;;;;;4982513;28;20281;-87
2021/04/21 13:19:51;;;;;;;7.13;2.47;;;16.50;75.50;;;;;;4985290;28;20046;-87
2021/04/21 13:22:17;;;;;;;3.50;2.60;;;16.50;79.50;;;;;;4969429;28;20121;-87